الصفحة الرئيسية
METAR-TAF:

METAR-TAF

مطار :

كورور, Babeldaob, بالاو

مطار ميتشيل رومان الدولي

دائرة عرض: 07-22N, خط طول: 134-32E, ارتفاع: 54 متر

مراقبة الطقس الحالي

تاريخ ووقت الإصدار 1ساعة و 8 دقيقة قبل الساعة 16:50UTC
رياح هادئة
درجة الحرارة 24°درجة مئوية
الرطوبة 94%
ضغط 1007 hPa
الرؤية: 22.5 كم
غيوم متفرقة على ارتفاع 1600 قدم, مزن ركامية عمودية.
غيوم مفككة على ارتفاع 29000 قدم

METAR: PTRO 241650Z 00000KT 14SM SCT016TCU BKN290 24/23 A2974 RMK TCU ALQDS

زمن: 02:58 (17:58 UTC)

توقعات

تاريخ ووقت الإصدار 20 دقيقة قبل الساعة 17:38UTC
التوقعات صالحة من24 الساعة 18 UTC إلى 25 الساعة 18 UTC
ريح 5 عقدةمن اتجاهات متغيرة
الرؤية: 10 كم
غيوم متفرقة على ارتفاع 1600 قدم
غيوم متفرقة على ارتفاع 12000 قدم
زخات في الجوار

TAF: PTRO 241738Z 2418/2518 VRB05KT P6SM VCSH SCT016 SCT120

أرصاد الطقس والتوقعات من أكثر من 4000 مطار (تقارير الطقس للمطار METAR والتنبؤ بالطقس بالمطارTAF).

المحطات المتاحة هي النقط الصفراء والحمراء على الخريطة.

حرك المؤشر فوق النقطة لمعرفة اسم المحطة.

ثم انقر لمعرفة أرصاد وتوقعات الطقس.

لتغيير الخارطة: اضغط على الأزرار الخضراء مع رمز الصليب الأسود للتكبير. على الزر الأخضر مع شرطة للتصغير، أو على الأسهم الخضراء للخرائط المجاورة.


METAR-TAF: